createdAt,value
2022-08-22T00:00:53.385Z,4.00
2022-08-22T00:01:53.392Z,4.00
2022-08-22T00:02:42.672Z,0.00
2022-08-22T00:02:42.774Z,0.00
2022-08-22T00:02:44.022Z,0.00
2022-08-22T00:03:00.233Z,4.00
2022-08-22T00:03:02.257Z,0.00
2022-08-22T00:03:10.195Z,0.00
2022-08-22T00:03:12.378Z,0.00
2022-08-22T00:03:17.627Z,4.00
2022-08-22T00:03:55.361Z,0.00
2022-08-22T00:04:53.346Z,0.00
2022-08-22T00:05:53.338Z,0.00
2022-08-22T00:06:53.325Z,0.00
2022-08-22T00:07:53.329Z,0.00
2022-08-22T00:08:54.317Z,0.00
2022-08-22T00:09:53.346Z,0.00
2022-08-22T00:10:53.302Z,0.00
2022-08-22T00:11:53.275Z,0.00
2022-08-22T00:12:53.260Z,0.00
2022-08-22T00:14:01.822Z,0.00
2022-08-22T00:14:55.270Z,0.00
2022-08-22T00:15:53.253Z,0.00
2022-08-22T00:16:53.503Z,0.00
2022-08-22T00:17:53.373Z,0.00
2022-08-22T00:18:53.215Z,0.00
2022-08-22T00:19:53.201Z,0.00
2022-08-22T00:20:54.214Z,0.00
2022-08-22T00:21:53.182Z,0.00
2022-08-22T00:22:53.177Z,0.00
2022-08-22T00:23:53.173Z,0.00
2022-08-22T00:24:53.154Z,0.00
2022-08-22T00:25:53.151Z,0.00
2022-08-22T00:26:53.130Z,0.00
2022-08-22T00:27:53.117Z,0.00
2022-08-22T00:28:53.131Z,0.00
2022-08-22T00:29:53.097Z,0.00
2022-08-22T00:30:53.086Z,0.00
2022-08-22T00:31:53.085Z,0.00
2022-08-22T00:32:53.071Z,0.00
2022-08-22T00:33:53.075Z,0.00
2022-08-22T00:34:53.081Z,0.00
2022-08-22T00:35:53.052Z,0.00
2022-08-22T00:36:53.097Z,0.00
2022-08-22T00:37:54.063Z,0.00
2022-08-22T00:38:53.015Z,0.00
2022-08-22T00:39:53.044Z,0.00
2022-08-22T00:40:52.995Z,0.00
2022-08-22T00:41:52.976Z,0.00
2022-08-22T00:42:52.988Z,0.00
2022-08-22T00:43:52.950Z,0.00
2022-08-22T00:44:53.962Z,0.00
2022-08-22T00:45:52.938Z,0.00
2022-08-22T00:46:53.027Z,0.00
2022-08-22T00:47:52.960Z,0.00
2022-08-22T00:48:52.911Z,0.00
2022-08-22T00:49:52.932Z,0.00
2022-08-22T00:50:52.902Z,0.00
2022-08-22T00:51:52.869Z,0.00
2022-08-22T00:52:52.879Z,0.00
2022-08-22T00:53:52.869Z,0.00
2022-08-22T00:54:52.848Z,0.00
2022-08-22T00:55:52.886Z,0.00
2022-08-22T00:56:53.049Z,0.00
2022-08-22T00:57:52.889Z,0.00
2022-08-22T00:58:52.859Z,0.00
2022-08-22T00:59:52.810Z,0.00
2022-08-22T01:00:52.820Z,0.00
2022-08-22T01:01:52.791Z,0.00
2022-08-22T01:02:53.062Z,0.00
2022-08-22T01:04:24.680Z,0.00
2022-08-22T01:04:52.746Z,0.00
2022-08-22T01:05:52.736Z,0.00
2022-08-22T01:06:52.732Z,0.00
2022-08-22T01:07:52.808Z,0.00
2022-08-22T01:08:52.719Z,0.00
2022-08-22T01:09:52.693Z,0.00
2022-08-22T01:10:52.694Z,0.00
2022-08-22T01:11:52.672Z,0.00
2022-08-22T01:12:52.665Z,0.00
2022-08-22T01:13:52.689Z,0.00
2022-08-22T01:14:52.655Z,0.00
2022-08-22T01:15:52.637Z,0.00
2022-08-22T01:16:52.626Z,0.00
2022-08-22T01:17:52.642Z,0.00
2022-08-22T01:18:52.626Z,0.00
2022-08-22T01:19:52.623Z,0.00
2022-08-22T01:20:52.604Z,0.00
2022-08-22T01:21:52.610Z,0.00
2022-08-22T01:22:52.599Z,0.00
2022-08-22T01:23:52.556Z,0.00
2022-08-22T01:24:52.548Z,0.00
2022-08-22T01:25:52.554Z,0.00
2022-08-22T01:26:52.552Z,0.00
2022-08-22T01:27:52.667Z,0.00
2022-08-22T01:28:52.535Z,0.00
2022-08-22T01:29:52.509Z,0.00
2022-08-22T01:30:52.487Z,0.00
2022-08-22T01:31:52.499Z,0.00
2022-08-22T01:32:57.139Z,0.00
2022-08-22T01:33:52.490Z,0.00
2022-08-22T01:34:52.461Z,0.00
2022-08-22T01:35:52.435Z,0.00
2022-08-22T01:36:52.449Z,0.00
2022-08-22T01:37:52.433Z,0.00
2022-08-22T01:38:52.424Z,0.00
2022-08-22T01:39:52.465Z,0.00
2022-08-22T01:40:53.731Z,0.00
2022-08-22T01:41:52.377Z,0.00
2022-08-22T01:42:52.373Z,0.00
2022-08-22T01:44:00.728Z,0.00
2022-08-22T01:44:53.368Z,0.00
2022-08-22T01:45:52.356Z,0.00
2022-08-22T01:46:52.328Z,0.00
2022-08-22T01:47:54.237Z,0.00
2022-08-22T01:48:52.303Z,0.00
2022-08-22T01:49:52.318Z,0.00
2022-08-22T01:50:52.289Z,0.00
2022-08-22T01:51:52.287Z,0.00
2022-08-22T01:52:52.271Z,0.00
2022-08-22T01:53:52.271Z,0.00
2022-08-22T01:54:52.274Z,0.00
2022-08-22T01:55:52.250Z,0.00
2022-08-22T01:56:52.233Z,0.00
2022-08-22T01:57:52.269Z,0.00
2022-08-22T01:58:52.218Z,0.00
2022-08-22T01:59:52.217Z,0.00
2022-08-22T02:00:52.248Z,0.00
2022-08-22T02:01:52.177Z,0.00
2022-08-22T02:02:52.180Z,0.00
2022-08-22T02:03:52.152Z,0.00
2022-08-22T02:04:52.168Z,0.00
2022-08-22T02:05:52.155Z,0.00
2022-08-22T02:06:52.158Z,0.00
2022-08-22T02:07:52.220Z,0.00
2022-08-22T02:08:52.112Z,0.00
2022-08-22T02:09:52.099Z,0.00
2022-08-22T02:10:52.089Z,0.00
2022-08-22T02:11:52.084Z,0.00
2022-08-22T02:12:52.091Z,0.00
2022-08-22T02:13:52.056Z,0.00
2022-08-22T02:14:52.075Z,0.00
2022-08-22T02:15:52.040Z,0.00
2022-08-22T02:16:52.032Z,0.00
2022-08-22T02:17:52.018Z,0.00
2022-08-22T02:18:52.006Z,0.00
2022-08-22T02:19:52.028Z,0.00
2022-08-22T02:20:52.006Z,0.00
2022-08-22T02:21:52.007Z,0.00
2022-08-22T02:22:51.983Z,4.00
2022-08-22T02:23:51.963Z,4.00
2022-08-22T02:24:51.958Z,4.00
2022-08-22T02:25:51.971Z,4.00
2022-08-22T02:26:51.939Z,0.00
2022-08-22T02:27:51.936Z,0.00
2022-08-22T02:28:57.422Z,0.00
2022-08-22T02:29:52.933Z,0.00
2022-08-22T02:30:51.940Z,0.00
2022-08-22T02:31:51.875Z,0.00
2022-08-22T02:32:51.869Z,0.00
2022-08-22T02:33:51.887Z,0.00
2022-08-22T02:34:51.864Z,0.00
2022-08-22T02:35:51.866Z,0.00
2022-08-22T02:36:51.844Z,0.00
2022-08-22T02:37:51.827Z,0.00
2022-08-22T02:38:51.826Z,0.00
2022-08-22T02:39:51.871Z,0.00
2022-08-22T02:40:51.806Z,0.00
2022-08-22T02:41:51.780Z,0.00
2022-08-22T02:42:51.778Z,0.00
2022-08-22T02:43:51.760Z,0.00
2022-08-22T02:44:51.766Z,0.00
2022-08-22T02:45:51.745Z,0.00
2022-08-22T02:46:51.724Z,0.00
2022-08-22T02:47:51.785Z,0.00
2022-08-22T02:48:51.733Z,0.00
2022-08-22T02:49:51.722Z,0.00
2022-08-22T02:50:51.693Z,0.00
2022-08-22T02:51:51.678Z,0.00
2022-08-22T02:52:51.691Z,0.00
2022-08-22T02:53:51.671Z,0.00
2022-08-22T02:54:51.649Z,0.00
2022-08-22T02:55:51.644Z,0.00
2022-08-22T02:56:51.654Z,0.00
2022-08-22T02:57:51.648Z,0.00
2022-08-22T02:58:51.637Z,0.00
2022-08-22T02:59:51.598Z,0.00
2022-08-22T03:00:51.614Z,0.00
2022-08-22T03:01:51.632Z,0.00
2022-08-22T03:02:52.578Z,0.00
2022-08-22T03:03:51.606Z,0.00
2022-08-22T03:04:51.554Z,0.00
2022-08-22T03:05:51.543Z,0.00
2022-08-22T03:06:51.549Z,0.00
2022-08-22T03:07:51.536Z,0.00
2022-08-22T03:08:51.507Z,0.00
2022-08-22T03:09:51.509Z,0.00
2022-08-22T03:10:51.511Z,0.00
2022-08-22T03:11:51.505Z,0.00
2022-08-22T03:12:54.710Z,0.00
2022-08-22T03:13:52.457Z,0.00
2022-08-22T03:14:51.442Z,0.00
2022-08-22T03:15:51.439Z,0.00
2022-08-22T03:16:51.488Z,0.00
2022-08-22T03:17:51.410Z,0.00
2022-08-22T03:18:51.416Z,0.00
2022-08-22T03:19:51.402Z,0.00
2022-08-22T03:20:51.399Z,0.00
2022-08-22T03:21:51.413Z,0.00
2022-08-22T03:22:51.372Z,0.00
2022-08-22T03:23:51.370Z,0.00
2022-08-22T03:24:51.354Z,0.00
2022-08-22T03:25:51.352Z,0.00
2022-08-22T03:26:51.352Z,0.00
2022-08-22T03:27:51.359Z,0.00
2022-08-22T03:28:59.041Z,0.00
2022-08-22T03:29:52.309Z,0.00
2022-08-22T03:30:51.361Z,0.00
2022-08-22T03:31:51.301Z,0.00
2022-08-22T03:32:51.311Z,0.00
2022-08-22T03:33:51.266Z,0.00
2022-08-22T03:34:51.260Z,0.00
2022-08-22T03:35:51.259Z,4.00
2022-08-22T03:36:51.234Z,4.00
2022-08-22T03:37:51.241Z,4.00
2022-08-22T03:38:51.224Z,0.00
2022-08-22T03:39:51.347Z,0.00
2022-08-22T03:40:51.222Z,4.00
2022-08-22T03:41:51.194Z,4.00
2022-08-22T03:42:51.202Z,8.00
2022-08-22T03:43:51.180Z,4.00
2022-08-22T03:44:51.177Z,8.00
2022-08-22T03:45:51.184Z,8.00
2022-08-22T03:46:51.160Z,12.00
2022-08-22T03:47:51.138Z,12.00
2022-08-22T03:48:51.142Z,12.00
2022-08-22T03:49:51.141Z,12.00
2022-08-22T03:50:51.115Z,16.00
2022-08-22T03:51:51.114Z,16.00
2022-08-22T03:52:51.096Z,20.00
2022-08-22T03:53:51.101Z,24.00
2022-08-22T03:54:51.093Z,28.00
2022-08-22T03:55:51.063Z,32.00
2022-08-22T03:56:54.069Z,40.00
2022-08-22T03:57:52.071Z,44.00
2022-08-22T03:58:51.029Z,56.00
2022-08-22T03:59:51.051Z,64.00
2022-08-22T04:00:51.045Z,76.00
2022-08-22T04:01:52.019Z,84.00
2022-08-22T04:02:50.981Z,96.00
2022-08-22T04:03:51.995Z,112.00
2022-08-22T04:04:50.988Z,124.00
2022-08-22T04:05:51.014Z,144.00
2022-08-22T04:06:53.745Z,164.00
2022-08-22T04:07:51.942Z,180.00
2022-08-22T04:08:50.967Z,200.00
2022-08-22T04:09:50.923Z,224.00
2022-08-22T04:10:50.915Z,244.00
2022-08-22T04:11:50.908Z,272.00
2022-08-22T04:12:50.906Z,300.00
2022-08-22T04:13:50.913Z,332.00
2022-08-22T04:14:50.888Z,360.00
2022-08-22T04:15:50.877Z,396.00
2022-08-22T04:16:50.937Z,428.00
2022-08-22T04:17:50.882Z,464.00
2022-08-22T04:18:50.868Z,504.00
2022-08-22T04:19:50.826Z,540.00
2022-08-22T04:20:50.819Z,580.00
2022-08-22T04:21:50.814Z,624.00
2022-08-22T04:22:50.818Z,668.00
2022-08-22T04:23:50.803Z,716.00
2022-08-22T04:24:52.127Z,764.00
2022-08-22T04:25:50.780Z,812.00
2022-08-22T04:26:50.758Z,868.00
2022-08-22T04:27:50.824Z,928.00
2022-08-22T04:28:50.759Z,992.00
2022-08-22T04:29:50.735Z,1056.00
2022-08-22T04:30:50.721Z,1132.00
2022-08-22T04:31:50.718Z,1220.00
2022-08-22T04:32:50.732Z,1328.00
2022-08-22T04:33:50.702Z,1448.00
2022-08-22T04:34:50.681Z,1536.00
2022-08-22T04:35:50.686Z,1576.00
2022-08-22T04:36:50.746Z,1620.00
2022-08-22T04:37:50.678Z,1684.00
2022-08-22T04:38:50.640Z,1788.00
2022-08-22T04:39:50.712Z,1932.00
2022-08-22T04:40:50.634Z,2100.00
2022-08-22T04:41:50.657Z,2288.00
2022-08-22T04:42:50.608Z,2492.00
2022-08-22T04:43:50.610Z,2704.00
2022-08-22T04:44:50.624Z,2972.00
2022-08-22T04:45:50.580Z,3280.00
2022-08-22T04:46:50.565Z,3584.00
2022-08-22T04:47:54.395Z,4084.00
2022-08-22T04:48:50.555Z,6360.00
2022-08-22T04:49:50.555Z,9116.00
2022-08-22T04:50:50.548Z,11232.00
2022-08-22T04:51:50.522Z,12032.00
2022-08-22T04:52:50.514Z,12608.00
2022-08-22T04:53:50.535Z,13312.00
2022-08-22T04:54:50.491Z,13984.00
2022-08-22T04:55:50.479Z,14720.00
2022-08-22T04:56:50.476Z,15712.00
2022-08-22T04:57:50.461Z,16704.00
2022-08-22T04:58:50.471Z,17760.00
2022-08-22T04:59:50.442Z,18592.00
2022-08-22T05:00:50.440Z,19232.00
2022-08-22T05:01:50.538Z,19712.00
2022-08-22T05:02:50.426Z,20384.00
2022-08-22T05:03:50.408Z,21408.00
2022-08-22T05:04:50.414Z,22592.00
2022-08-22T05:05:50.427Z,23296.00
2022-08-22T05:06:50.385Z,24192.00
2022-08-22T05:07:50.370Z,24960.00
2022-08-22T05:08:53.761Z,25568.00
2022-08-22T05:09:50.358Z,26592.00
2022-08-22T05:10:50.364Z,28032.00
2022-08-22T05:11:50.359Z,29024.00
2022-08-22T05:12:50.349Z,30272.00
2022-08-22T05:13:50.314Z,30720.00
2022-08-22T05:14:50.335Z,32096.00
2022-08-22T05:15:50.299Z,32608.00
2022-08-22T05:16:50.289Z,33792.00
2022-08-22T05:17:50.323Z,34240.00
2022-08-22T05:18:50.296Z,33856.00
2022-08-22T05:19:50.271Z,33504.00
2022-08-22T05:20:50.252Z,33184.00
2022-08-22T05:21:50.257Z,33760.00
2022-08-22T05:22:50.239Z,34816.00
2022-08-22T05:23:50.249Z,35712.00
2022-08-22T05:24:50.232Z,36288.00
2022-08-22T05:25:50.212Z,38848.00
2022-08-22T05:26:50.185Z,40512.00
2022-08-22T05:27:53.268Z,40960.00
2022-08-22T05:28:53.081Z,43424.00
2022-08-22T05:29:51.180Z,44032.00
2022-08-22T05:30:50.153Z,43104.00
2022-08-22T05:31:50.151Z,42720.00
2022-08-22T05:32:50.145Z,42240.00
2022-08-22T05:33:50.128Z,42368.00
2022-08-22T05:34:51.410Z,42816.00
2022-08-22T05:35:53.406Z,45120.00
2022-08-22T05:36:52.107Z,47168.00
2022-08-22T05:37:50.101Z,48608.00
2022-08-22T05:38:50.079Z,50528.00
2022-08-22T05:39:50.109Z,51232.00
2022-08-22T05:40:50.082Z,51200.00
2022-08-22T05:41:50.042Z,52000.00
2022-08-22T05:42:50.046Z,54112.00
2022-08-22T05:43:50.026Z,54112.00
2022-08-22T05:44:50.017Z,53920.00
2022-08-22T05:45:50.019Z,53536.00
2022-08-22T05:46:50.022Z,53472.00
2022-08-22T05:47:49.994Z,53696.00
2022-08-22T05:48:49.975Z,53856.00
2022-08-22T05:49:49.982Z,54528.00
2022-08-22T05:50:51.052Z,56192.00
2022-08-22T05:51:49.981Z,57856.00
2022-08-22T05:52:49.933Z,58144.00
2022-08-22T05:53:49.936Z,58624.00
2022-08-22T05:54:49.912Z,59520.00
2022-08-22T05:55:49.910Z,59808.00
2022-08-22T05:56:49.892Z,60096.00
2022-08-22T05:57:49.899Z,61664.00
2022-08-22T05:58:49.896Z,62336.00
2022-08-22T05:59:49.867Z,59840.00
2022-08-22T06:00:49.879Z,58304.00
2022-08-22T06:01:49.868Z,58624.00
2022-08-22T06:02:49.878Z,60288.00
2022-08-22T06:03:49.825Z,61088.00
2022-08-22T06:04:49.818Z,60288.00
2022-08-22T06:05:49.814Z,59744.00
2022-08-22T06:06:49.797Z,62336.00
2022-08-22T06:07:49.813Z,62304.00
2022-08-22T06:08:49.785Z,62784.00
2022-08-22T06:09:49.782Z,64128.00
2022-08-22T06:10:49.767Z,64800.00
2022-08-22T06:11:51.642Z,63840.00
2022-08-22T06:12:49.737Z,62848.00
2022-08-22T06:13:49.729Z,64416.00
2022-08-22T06:14:49.745Z,66112.00
2022-08-22T06:15:49.710Z,65696.00
2022-08-22T06:16:49.704Z,65504.00
2022-08-22T06:17:49.701Z,65312.00
2022-08-22T06:18:49.694Z,64896.00
2022-08-22T06:19:49.707Z,65312.00
2022-08-22T06:20:49.658Z,65536.00
2022-08-22T06:21:49.667Z,66144.00
2022-08-22T06:22:49.639Z,67584.00
2022-08-22T06:23:49.634Z,68320.00
2022-08-22T06:24:49.649Z,67648.00
2022-08-22T06:25:49.617Z,66496.00
2022-08-22T06:26:49.632Z,65920.00
2022-08-22T06:27:49.603Z,66080.00
2022-08-22T06:28:55.035Z,66240.00
2022-08-22T06:29:50.582Z,66880.00
2022-08-22T06:30:49.571Z,68064.00
2022-08-22T06:31:49.585Z,68576.00
2022-08-22T06:32:59.298Z,67552.00
2022-08-22T06:33:50.558Z,64992.00
2022-08-22T06:34:49.529Z,62496.00
2022-08-22T06:35:49.541Z,63712.00
2022-08-22T06:36:49.520Z,65472.00
2022-08-22T06:37:49.551Z,65120.00
2022-08-22T06:38:49.516Z,66304.00
2022-08-22T06:39:49.532Z,66816.00
2022-08-22T06:40:49.507Z,65312.00
2022-08-22T06:41:49.465Z,64928.00
2022-08-22T06:42:49.451Z,65696.00
2022-08-22T06:43:49.441Z,65056.00
2022-08-22T06:44:49.434Z,66432.00
2022-08-22T06:45:49.452Z,66400.00
2022-08-22T06:46:49.425Z,66336.00
2022-08-22T06:47:50.196Z,68928.00
2022-08-22T06:48:49.458Z,70176.00
2022-08-22T06:49:49.412Z,70624.00
2022-08-22T06:50:49.390Z,71232.00
2022-08-22T06:51:49.384Z,70336.00
2022-08-22T06:52:49.371Z,69664.00
2022-08-22T06:53:49.360Z,68128.00
2022-08-22T06:54:49.374Z,68032.00
2022-08-22T06:55:49.342Z,67936.00
2022-08-22T06:56:49.354Z,69184.00
2022-08-22T06:57:49.445Z,70336.00
2022-08-22T06:58:49.316Z,69728.00
2022-08-22T06:59:49.306Z,68960.00
2022-08-22T07:00:53.551Z,67552.00
2022-08-22T07:01:51.336Z,67584.00
2022-08-22T07:02:49.297Z,67680.00
2022-08-22T07:04:21.177Z,64800.00
2022-08-22T07:04:49.273Z,64064.00
2022-08-22T07:05:49.286Z,65696.00
2022-08-22T07:06:49.253Z,68064.00
2022-08-22T07:07:49.267Z,69728.00
2022-08-22T07:08:49.243Z,69280.00
2022-08-22T07:09:49.224Z,67360.00
2022-08-22T07:10:49.216Z,67680.00
2022-08-22T07:11:49.195Z,67904.00
2022-08-22T07:12:49.223Z,68672.00
2022-08-22T07:13:49.198Z,69568.00
2022-08-22T07:14:49.204Z,70496.00
2022-08-22T07:15:49.184Z,70528.00
2022-08-22T07:16:49.183Z,68896.00
2022-08-22T07:17:49.201Z,67968.00
2022-08-22T07:18:49.175Z,67584.00
2022-08-22T07:19:49.143Z,67744.00
2022-08-22T07:20:49.131Z,66432.00
2022-08-22T07:21:49.156Z,65696.00
2022-08-22T07:22:49.113Z,66176.00
2022-08-22T07:23:49.109Z,66816.00
2022-08-22T07:24:49.087Z,67264.00
2022-08-22T07:25:49.092Z,67264.00
2022-08-22T07:26:49.089Z,67776.00
2022-08-22T07:27:49.108Z,68256.00
2022-08-22T07:28:51.493Z,67904.00
2022-08-22T07:29:49.048Z,67552.00
2022-08-22T07:30:49.032Z,67520.00
2022-08-22T07:31:49.062Z,67616.00
2022-08-22T07:32:49.037Z,67168.00
2022-08-22T07:33:49.010Z,66304.00
2022-08-22T07:34:49.020Z,66080.00
2022-08-22T07:35:53.427Z,66144.00
2022-08-22T07:36:49.059Z,64448.00
2022-08-22T07:37:49.082Z,63968.00
2022-08-22T07:38:49.069Z,64928.00
2022-08-22T07:39:49.002Z,65344.00
2022-08-22T07:40:48.952Z,64896.00
2022-08-22T07:41:48.935Z,64864.00
2022-08-22T07:42:48.936Z,64192.00
2022-08-22T07:43:48.940Z,61856.00
2022-08-22T07:44:48.927Z,60704.00
2022-08-22T07:45:48.911Z,62624.00
2022-08-22T07:46:49.082Z,64736.00
2022-08-22T07:47:49.851Z,64160.00
2022-08-22T07:49:08.179Z,61024.00
2022-08-22T07:49:50.881Z,58016.00
2022-08-22T07:50:48.864Z,59040.00
2022-08-22T07:51:48.872Z,60000.00
2022-08-22T07:52:48.856Z,58912.00
2022-08-22T07:53:48.916Z,55744.00
2022-08-22T07:54:48.848Z,54464.00
2022-08-22T07:55:49.872Z,55488.00
2022-08-22T07:56:48.825Z,56672.00
2022-08-22T07:57:48.812Z,57344.00
2022-08-22T07:58:48.802Z,56256.00
2022-08-22T07:59:48.784Z,53888.00
2022-08-22T08:00:48.799Z,52288.00
2022-08-22T08:01:48.845Z,55008.00
2022-08-22T08:02:49.759Z,56160.00
2022-08-22T08:03:48.747Z,55008.00
2022-08-22T08:04:48.730Z,53440.00
2022-08-22T08:05:48.758Z,53088.00
2022-08-22T08:06:48.723Z,53600.00
2022-08-22T08:07:48.718Z,52544.00
2022-08-22T08:08:48.703Z,51840.00
2022-08-22T08:09:48.702Z,51328.00
2022-08-22T08:10:48.710Z,51232.00
2022-08-22T08:11:48.677Z,50688.00
2022-08-22T08:12:54.150Z,49664.00
2022-08-22T08:13:49.666Z,48032.00
2022-08-22T08:14:48.660Z,46336.00
2022-08-22T08:15:48.648Z,45568.00
2022-08-22T08:16:48.652Z,47040.00
2022-08-22T08:17:48.626Z,42496.00
2022-08-22T08:18:48.713Z,30624.00
2022-08-22T08:19:48.649Z,25120.00
2022-08-22T08:20:48.595Z,24000.00
2022-08-22T08:21:48.592Z,23776.00
2022-08-22T08:22:48.581Z,23648.00
2022-08-22T08:23:48.573Z,23584.00
2022-08-22T08:24:48.587Z,23552.00
2022-08-22T08:25:48.559Z,23552.00
2022-08-22T08:26:48.549Z,23552.00
2022-08-22T08:27:50.555Z,23680.00
2022-08-22T08:28:48.556Z,23968.00
2022-08-22T08:29:48.543Z,24512.00
2022-08-22T08:30:48.521Z,24992.00
2022-08-22T08:31:48.507Z,25056.00
2022-08-22T08:32:48.507Z,25088.00
2022-08-22T08:33:48.479Z,25952.00
2022-08-22T08:34:48.491Z,27904.00
2022-08-22T08:36:01.918Z,32384.00
2022-08-22T08:36:50.474Z,40768.00
2022-08-22T08:37:48.441Z,45024.00
2022-08-22T08:38:48.468Z,39744.00
2022-08-22T08:39:48.464Z,34016.00
2022-08-22T08:40:48.507Z,34048.00
2022-08-22T08:41:48.403Z,32192.00
2022-08-22T08:42:48.395Z,29472.00
2022-08-22T08:43:48.400Z,28128.00
2022-08-22T08:44:48.367Z,27872.00
2022-08-22T08:45:48.377Z,28640.00
2022-08-22T08:46:55.508Z,28160.00
2022-08-22T08:47:48.354Z,26752.00
2022-08-22T08:48:48.358Z,25184.00
2022-08-22T08:49:50.482Z,27264.00
2022-08-22T08:50:48.328Z,28544.00
2022-08-22T08:51:48.318Z,26304.00
2022-08-22T08:52:52.247Z,24864.00
2022-08-22T08:53:49.309Z,24160.00
2022-08-22T08:54:48.290Z,24736.00
2022-08-22T08:55:48.283Z,25440.00
2022-08-22T08:56:48.270Z,25696.00
2022-08-22T08:57:48.255Z,25344.00
2022-08-22T08:58:48.804Z,25152.00
2022-08-22T08:59:48.251Z,24704.00
2022-08-22T09:00:48.848Z,24320.00
2022-08-22T09:01:48.284Z,23936.00
2022-08-22T09:02:48.209Z,24512.00
2022-08-22T09:03:48.200Z,25344.00
2022-08-22T09:04:48.194Z,25504.00
2022-08-22T09:05:48.188Z,25120.00
2022-08-22T09:07:49.245Z,23680.00
2022-08-22T09:08:50.670Z,24384.00
2022-08-22T09:09:52.588Z,24352.00
2022-08-22T09:10:48.167Z,24768.00
2022-08-22T09:11:48.144Z,24896.00
2022-08-22T09:13:11.759Z,24928.00
2022-08-22T09:13:49.114Z,24896.00
2022-08-22T09:14:48.102Z,25856.00
2022-08-22T09:15:59.661Z,25920.00
2022-08-22T09:16:51.268Z,26496.00
2022-08-22T09:17:48.098Z,25728.00
2022-08-22T09:18:48.065Z,26112.00
2022-08-22T09:19:48.098Z,30080.00
2022-08-22T09:20:48.177Z,30432.00
2022-08-22T09:21:48.057Z,29344.00
2022-08-22T09:22:50.312Z,30944.00
2022-08-22T09:23:48.033Z,33280.00
2022-08-22T09:24:48.040Z,32960.00
2022-08-22T09:25:48.013Z,35104.00
2022-08-22T09:26:47.989Z,41664.00
2022-08-22T09:27:49.019Z,41920.00
2022-08-22T09:28:47.982Z,35360.00
2022-08-22T09:29:54.911Z,28864.00
2022-08-22T09:30:48.998Z,25152.00
2022-08-22T09:31:52.576Z,23264.00
2022-08-22T09:32:48.947Z,21792.00
2022-08-22T09:33:47.940Z,21728.00
2022-08-22T09:34:47.933Z,22048.00
2022-08-22T09:35:47.945Z,20992.00
2022-08-22T09:36:47.949Z,19680.00
2022-08-22T09:37:48.444Z,18784.00
2022-08-22T09:38:48.288Z,18144.00
2022-08-22T09:39:49.478Z,17792.00
2022-08-22T09:40:15.327Z,23520.00
2022-08-22T09:40:47.886Z,17568.00
2022-08-22T09:41:47.891Z,17408.00
2022-08-22T09:42:47.866Z,17344.00
2022-08-22T09:43:48.710Z,17184.00
2022-08-22T09:44:47.842Z,17024.00
2022-08-22T09:45:47.926Z,16896.00
2022-08-22T09:46:47.922Z,16768.00
2022-08-22T09:47:47.831Z,16608.00
2022-08-22T09:48:47.805Z,16448.00
2022-08-22T09:49:47.806Z,16384.00
2022-08-22T09:50:47.821Z,16256.00
2022-08-22T09:51:48.775Z,16192.00
2022-08-22T09:52:47.764Z,16096.00
2022-08-22T09:53:47.758Z,16064.00
2022-08-22T09:54:47.739Z,16064.00
2022-08-22T09:55:47.730Z,16064.00
2022-08-22T09:56:47.747Z,16032.00
2022-08-22T09:57:47.718Z,16096.00
2022-08-22T09:58:47.719Z,16160.00
2022-08-22T09:59:47.693Z,16192.00
2022-08-22T10:00:47.758Z,16160.00
2022-08-22T10:01:47.709Z,16064.00
2022-08-22T10:02:50.256Z,16000.00
2022-08-22T10:03:47.727Z,15904.00
2022-08-22T10:04:47.664Z,15904.00
2022-08-22T10:05:47.649Z,15840.00
2022-08-22T10:06:47.635Z,15808.00
2022-08-22T10:07:47.667Z,15548.00
2022-08-22T10:08:48.628Z,15520.00
2022-08-22T10:09:47.608Z,15412.00
2022-08-22T10:10:48.604Z,15252.00
2022-08-22T10:11:47.596Z,15092.00
2022-08-22T10:12:47.626Z,14872.00
2022-08-22T10:13:47.578Z,14704.00
2022-08-22T10:14:50.463Z,14620.00
2022-08-22T10:15:47.562Z,14660.00
2022-08-22T10:16:47.557Z,14720.00
2022-08-22T10:17:47.539Z,14808.00
2022-08-22T10:18:52.846Z,14896.00
2022-08-22T10:19:47.544Z,15012.00
2022-08-22T10:20:47.514Z,15164.00
2022-08-22T10:21:47.505Z,15308.00
2022-08-22T10:22:47.488Z,15372.00
2022-08-22T10:23:47.484Z,15404.00
2022-08-22T10:24:47.492Z,15512.00
2022-08-22T10:25:47.462Z,15548.00
2022-08-22T10:26:47.465Z,15460.00
2022-08-22T10:27:47.452Z,15360.00
2022-08-22T10:28:47.438Z,15336.00
2022-08-22T10:29:47.443Z,15296.00
2022-08-22T10:30:47.414Z,15168.00
2022-08-22T10:31:59.249Z,15084.00
2022-08-22T10:32:48.394Z,15148.00
2022-08-22T10:33:47.409Z,15192.00
2022-08-22T10:34:47.400Z,15052.00
2022-08-22T10:35:47.371Z,14864.00
2022-08-22T10:36:47.361Z,14720.00
2022-08-22T10:37:47.371Z,14648.00
2022-08-22T10:38:47.335Z,14492.00
2022-08-22T10:39:47.401Z,14284.00
2022-08-22T10:40:47.645Z,14132.00
2022-08-22T10:41:47.343Z,14052.00
2022-08-22T10:42:47.309Z,13856.00
2022-08-22T10:43:47.302Z,13896.00
2022-08-22T10:44:47.297Z,13736.00
2022-08-22T10:45:47.310Z,13516.00
2022-08-22T10:46:48.285Z,13232.00
2022-08-22T10:47:47.266Z,12948.00
2022-08-22T10:48:47.256Z,12756.00
2022-08-22T10:49:47.246Z,12612.00
2022-08-22T10:50:47.265Z,12456.00
2022-08-22T10:51:47.291Z,12348.00
2022-08-22T10:52:47.213Z,12308.00
2022-08-22T10:53:47.236Z,12320.00
2022-08-22T10:54:47.192Z,12340.00
2022-08-22T10:55:47.176Z,12308.00
2022-08-22T10:56:47.193Z,12304.00
2022-08-22T10:57:52.127Z,12268.00
2022-08-22T10:58:49.178Z,12292.00
2022-08-22T10:59:47.866Z,12268.00
2022-08-22T11:00:49.986Z,12196.00
2022-08-22T11:01:47.204Z,12140.00
2022-08-22T11:02:47.113Z,12060.00
2022-08-22T11:03:47.123Z,12120.00
2022-08-22T11:04:47.099Z,12184.00
2022-08-22T11:05:50.131Z,12092.00
2022-08-22T11:06:47.091Z,11924.00
2022-08-22T11:07:48.800Z,11780.00
2022-08-22T11:08:47.060Z,11716.00
2022-08-22T11:09:47.051Z,11716.00
2022-08-22T11:10:47.051Z,11716.00
2022-08-22T11:11:47.566Z,11788.00
2022-08-22T11:12:47.045Z,11852.00
2022-08-22T11:13:47.015Z,11876.00
2022-08-22T11:14:47.012Z,11908.00
2022-08-22T11:15:46.997Z,11872.00
2022-08-22T11:16:47.012Z,11844.00
2022-08-22T11:17:53.975Z,11896.00
2022-08-22T11:19:02.705Z,11884.00
2022-08-22T11:19:47.987Z,11852.00
2022-08-22T11:20:46.952Z,11888.00
2022-08-22T11:21:46.947Z,11896.00
2022-08-22T11:22:47.214Z,11864.00
2022-08-22T11:23:46.921Z,11816.00
2022-08-22T11:24:56.424Z,11820.00
2022-08-22T11:25:52.485Z,11816.00
2022-08-22T11:26:47.939Z,11816.00
2022-08-22T11:27:46.887Z,11788.00
2022-08-22T11:28:46.890Z,11896.00
2022-08-22T11:29:46.872Z,11968.00
2022-08-22T11:30:46.890Z,11960.00
2022-08-22T11:31:51.397Z,12144.00
2022-08-22T11:32:46.859Z,12156.00
2022-08-22T11:33:47.779Z,12128.00
2022-08-22T11:34:46.821Z,12096.00
2022-08-22T11:35:46.862Z,12024.00
2022-08-22T11:36:46.809Z,11924.00
2022-08-22T11:37:46.808Z,11804.00
2022-08-22T11:38:46.798Z,11624.00
2022-08-22T11:39:47.143Z,11424.00
2022-08-22T11:40:46.774Z,11316.00
2022-08-22T11:41:48.410Z,11256.00
2022-08-22T11:42:47.877Z,11308.00
2022-08-22T11:43:46.756Z,11424.00
2022-08-22T11:44:50.823Z,11404.00
2022-08-22T11:45:46.737Z,11288.00
2022-08-22T11:46:46.733Z,11184.00
2022-08-22T11:47:46.705Z,11068.00
2022-08-22T11:48:48.670Z,10908.00
2022-08-22T11:49:46.686Z,10812.00
2022-08-22T11:50:46.677Z,10924.00
2022-08-22T11:51:46.670Z,11192.00
2022-08-22T11:52:51.752Z,11204.00
2022-08-22T11:53:47.668Z,11100.00
2022-08-22T11:54:46.641Z,10988.00
2022-08-22T11:55:46.629Z,10900.00
2022-08-22T11:56:46.641Z,10772.00
2022-08-22T11:57:46.634Z,10680.00
2022-08-22T11:58:46.609Z,10628.00
2022-08-22T11:59:46.601Z,10536.00
2022-08-22T12:00:46.603Z,10464.00
2022-08-22T12:01:46.617Z,10376.00
2022-08-22T12:02:47.497Z,10244.00
2022-08-22T12:03:46.581Z,10116.00
2022-08-22T12:04:47.641Z,10064.00
2022-08-22T12:05:46.576Z,10080.00
2022-08-22T12:06:46.773Z,10156.00
2022-08-22T12:07:50.556Z,10200.00
2022-08-22T12:08:47.516Z,10208.00